Pearl Beach, Michigan
Current Conditions -  °F | °C
As of 2:58 AM on Tuesday 27 Jan 2015 (Local Time) from KMTC Reporting Station
Clear Clear  
Wind Chill:   Ceiling: Unl
Heat Index: 11°   Visibility: 10mi
Dew Point:   Wind: 5mph
Humidity: 83%   Direction: 340°NNW
Pressure: 29.97"   Gusts: NA
Location:  42.6418°N, 82.5677°W
Report Text: KMTC 270758Z AUTO 34004KT 10SM CLR M12/M14 A2997 RMK AO2 SLP163 T11161140 $
Loading
Personal Weather Stations






























Interactive Weather Map New forecast layout! Learn more

10-Day Weather Forecast

Advertisements
Track Severe Weather on mobile